Time;durP1;ratioP1;P1;durP2;ratioP2;P2;SDS_P1;SDS_P2;PMS_P1;PMS_P2;Temp;Humidity;BMP_temperature;BMP_pressure;BME280_temperature;BME280_humidity;BME280_pressure;Samples;Min_cycle;Max_cycle;Signal;HPM_P1;HPM_P2
2022/11/02 00:00:54;;;;;;;7.17;1.40;;;12.00;99.90;;;;;;5039093;28;20802;-72
2022/11/02 00:03:20;;;;;;;6.83;1.40;;;12.10;99.90;;;;;;5012036;28;20443;-72
2022/11/02 00:05:46;;;;;;;10.90;1.13;;;12.10;99.90;;;;;;5034913;28;20275;-72
2022/11/02 00:08:11;;;;;;;5.23;1.10;;;12.10;99.90;;;;;;5026795;28;20298;-72
2022/11/02 00:10:37;;;;;;;7.17;0.80;;;12.10;99.90;;;;;;5018967;28;20067;-72
2022/11/02 00:13:03;;;;;;;8.03;0.93;;;12.00;99.90;;;;;;5012643;28;20052;-72
2022/11/02 00:15:31;;;;;;;5.50;1.00;;;12.00;99.90;;;;;;5012523;28;20213;-72
2022/11/02 00:18:10;;;;;;;4.83;1.17;;;12.00;99.90;;;;;;5032896;28;20044;-73
2022/11/02 00:20:38;;;;;;;4.07;1.33;;;11.90;99.90;;;;;;5023186;28;20306;-73
2022/11/02 00:23:06;;;;;;;4.37;1.30;;;11.90;99.90;;;;;;5030235;28;20763;-73
2022/11/02 00:25:32;;;;;;;4.53;0.87;;;11.80;99.90;;;;;;5013388;28;20343;-73
2022/11/02 00:27:58;;;;;;;6.80;0.80;;;11.80;99.90;;;;;;5027219;28;20336;-73
2022/11/02 00:30:24;;;;;;;9.07;1.23;;;11.70;99.90;;;;;;5044583;28;20275;-73
2022/11/02 00:32:50;;;;;;;5.00;1.40;;;11.60;99.90;;;;;;5049505;28;20515;-73
2022/11/02 00:35:16;;;;;;;8.00;1.23;;;11.50;99.90;;;;;;5032682;28;20083;-72
2022/11/02 00:37:41;;;;;;;6.87;1.30;;;11.50;99.90;;;;;;5023257;28;20720;-73
2022/11/02 00:40:08;;;;;;;8.10;1.20;;;11.40;99.90;;;;;;5024235;28;20044;-72
2022/11/02 00:42:34;;;;;;;5.93;0.87;;;11.30;99.90;;;;;;5031528;28;20040;-73
2022/11/02 00:44:59;;;;;;;6.93;0.93;;;11.30;99.90;;;;;;5016786;28;20275;-72
2022/11/02 00:47:25;;;;;;;6.73;0.90;;;11.30;99.90;;;;;;5034705;28;20496;-72
2022/11/02 00:49:51;;;;;;;3.27;0.80;;;11.20;99.90;;;;;;5006044;28;20060;-72
2022/11/02 00:52:17;;;;;;;3.93;1.00;;;11.20;99.90;;;;;;5015111;28;20420;-72
2022/11/02 00:54:43;;;;;;;8.07;1.20;;;11.20;99.90;;;;;;5013703;28;20047;-72
2022/11/02 00:57:08;;;;;;;4.73;0.70;;;11.10;99.90;;;;;;5025695;28;20561;-72
2022/11/02 00:59:34;;;;;;;6.00;1.70;;;11.10;99.90;;;;;;5053373;28;20279;-72
2022/11/02 01:02:00;;;;;;;3.97;0.60;;;11.10;99.90;;;;;;5052330;28;20074;-72
2022/11/02 01:04:25;;;;;;;3.57;0.73;;;11.10;99.90;;;;;;5012462;28;20036;-72
2022/11/02 01:06:51;;;;;;;5.67;0.70;;;11.10;99.90;;;;;;5027617;28;20044;-72
2022/11/02 01:09:17;;;;;;;3.33;0.60;;;11.20;99.90;;;;;;5024443;28;20530;-72
2022/11/02 01:11:43;;;;;;;4.30;0.50;;;11.20;99.90;;;;;;5045123;28;20068;-72
2022/11/02 01:14:09;;;;;;;6.20;0.83;;;11.20;99.90;;;;;;5049515;28;20409;-73
2022/11/02 01:16:37;;;;;;;3.27;0.53;;;11.30;99.90;;;;;;5027219;28;20059;-72
2022/11/02 01:19:03;;;;;;;3.67;0.57;;;11.30;99.90;;;;;;5049052;28;20647;-72
2022/11/02 01:21:28;;;;;;;3.87;0.50;;;11.40;99.90;;;;;;5029910;28;20299;-72
2022/11/02 01:23:55;;;;;;;5.33;0.60;;;11.40;99.90;;;;;;5017139;28;20478;-72
2022/11/02 01:26:20;;;;;;;8.33;0.80;;;11.40;99.90;;;;;;5013080;28;20445;-72
2022/11/02 01:28:46;;;;;;;6.40;1.57;;;11.40;99.90;;;;;;5052605;28;20290;-72
2022/11/02 01:31:12;;;;;;;6.37;0.90;;;11.40;99.90;;;;;;5018214;28;20052;-72
2022/11/02 01:33:43;;;;;;;5.77;0.90;;;11.40;99.90;;;;;;5033474;28;20074;-73
2022/11/02 01:36:10;;;;;;;6.57;0.40;;;11.30;99.90;;;;;;5052840;28;20291;-73
2022/11/02 01:38:36;;;;;;;7.47;0.60;;;11.20;99.90;;;;;;5053011;28;20280;-72
2022/11/02 01:41:02;;;;;;;7.23;0.53;;;11.00;99.90;;;;;;5021799;28;20313;-73
2022/11/02 01:43:35;;;;;;;4.97;0.50;;;10.90;99.90;;;;;;5042504;28;20515;-73
2022/11/02 01:46:23;;;;;;;4.43;0.90;;;10.80;99.90;;;;;;5038194;28;20080;-72
2022/11/02 01:48:59;;;;;;;3.43;0.70;;;10.70;99.90;;;;;;5032815;28;20290;-72
2022/11/02 01:51:34;;;;;;;4.50;0.70;;;10.60;99.90;;;;;;5027451;28;20290;-72
2022/11/02 01:54:03;;;;;;;;;;;10.50;99.90;;;;;;5029384;28;20328;-72
2022/11/02 01:56:31;;;;;;;7.23;0.60;;;10.40;99.90;;;;;;5032156;28;19916;-72
2022/11/02 01:59:01;;;;;;;6.40;0.83;;;10.30;99.90;;;;;;5036444;28;20287;-72
2022/11/02 02:01:27;;;;;;;2.93;0.53;;;10.30;99.90;;;;;;5048680;28;20363;-72
2022/11/02 02:03:55;;;;;;;4.43;0.60;;;10.20;99.90;;;;;;5022496;28;20324;-72
2022/11/02 02:06:21;;;;;;;5.13;0.53;;;10.20;99.90;;;;;;5011786;28;20282;-72
2022/11/02 02:08:49;;;;;;;4.30;0.90;;;10.20;99.90;;;;;;5022759;28;20603;-72
2022/11/02 02:11:31;;;;;;;5.20;0.97;;;10.20;99.90;;;;;;5032775;28;20102;-72
2022/11/02 02:14:08;;;;;;;3.43;0.90;;;10.20;99.90;;;;;;5034039;28;20282;-72
2022/11/02 02:16:55;;;;;;;2.30;0.67;;;10.20;99.90;;;;;;5032202;28;20349;-72
2022/11/02 02:19:27;;;;;;;4.80;0.90;;;10.20;99.90;;;;;;5027284;28;20319;-72
2022/11/02 02:22:11;;;;;;;6.63;1.10;;;10.30;99.90;;;;;;5048527;28;20657;-72
2022/11/02 02:25:08;;;;;;;4.77;0.50;;;10.30;99.90;;;;;;5031985;28;20692;-72
2022/11/02 02:28:02;;;;;;;2.83;0.50;;;10.30;99.90;;;;;;5026959;28;20562;-72
2022/11/02 02:30:34;;;;;;;4.53;0.50;;;10.40;99.90;;;;;;5039767;28;20271;-72
2022/11/02 02:33:12;;;;;;;4.07;0.50;;;10.40;99.90;;;;;;5048200;28;20286;-72
2022/11/02 02:35:46;;;;;;;3.83;0.40;;;10.40;99.90;;;;;;5037154;28;20298;-72
2022/11/02 02:38:31;;;;;;;2.17;0.30;;;10.40;99.90;;;;;;5029906;28;20278;-72
2022/11/02 02:41:12;;;;;;;2.95;0.43;;;10.40;99.90;;;;;;5035043;28;20367;-72
2022/11/02 02:43:53;;;;;;;3.77;0.30;;;10.40;99.90;;;;;;5035757;28;20048;-72
2022/11/02 02:46:36;;;;;;;5.43;0.60;;;10.40;99.90;;;;;;5032881;28;20601;-72
2022/11/02 02:49:05;;;;;;;5.50;0.40;;;10.40;99.90;;;;;;5026821;28;20648;-72
2022/11/02 02:51:33;;;;;;;4.95;0.55;;;10.40;99.90;;;;;;5046392;28;20086;-72
2022/11/02 02:54:22;;;;;;;2.17;0.30;;;10.50;99.90;;;;;;5049166;28;20068;-72
2022/11/02 02:56:52;;;;;;;3.63;0.60;;;10.50;99.90;;;;;;5048441;28;20047;-72
2022/11/02 02:59:23;;;;;;;3.47;0.50;;;10.50;99.90;;;;;;5029872;28;20317;-72
2022/11/02 03:01:50;;;;;;;5.77;0.40;;;10.50;99.90;;;;;;5047139;28;20289;-72
2022/11/02 03:04:16;;;;;;;4.63;0.60;;;10.50;99.90;;;;;;5030460;28;20330;-72
2022/11/02 03:06:47;;;;;;;4.20;0.60;;;10.40;99.90;;;;;;5045826;28;20327;-72
2022/11/02 03:09:54;;;;;;;5.53;0.50;;;10.40;99.90;;;;;;5033469;28;20805;-72
2022/11/02 03:12:48;;;;;;;7.00;0.83;;;10.40;99.90;;;;;;4986316;28;20598;-72
2022/11/02 03:15:45;;;;;;;5.70;0.60;;;10.40;99.90;;;;;;5058141;28;20310;-72
2022/11/02 03:18:39;;;;;;;5.03;1.30;;;10.40;99.90;;;;;;5041828;28;20808;-72
2022/11/02 03:21:27;;;;;;;6.68;0.90;;;10.40;99.90;;;;;;5023774;28;20291;-72
2022/11/02 03:24:18;;;;;;;6.93;0.40;;;10.40;99.90;;;;;;5026081;28;20048;-72
2022/11/02 03:26:47;;;;;;;9.13;0.88;;;10.40;99.90;;;;;;5041280;28;20321;-72
2022/11/02 03:29:22;;;;;;;5.22;0.60;;;10.40;99.90;;;;;;5047431;28;20040;-72
2022/11/02 03:32:03;;;;;;;10.85;1.05;;;10.40;99.90;;;;;;5028967;28;20392;-72
2022/11/02 03:34:53;;;;;;;4.83;0.70;;;10.50;99.90;;;;;;5030044;28;20083;-72
2022/11/02 03:37:26;;;;;;;6.43;0.75;;;10.50;99.90;;;;;;5015362;28;20297;-72
2022/11/02 03:40:16;;;;;;;6.40;0.60;;;10.50;99.90;;;;;;5024159;28;20129;-72
2022/11/02 03:42:42;;;;;;;7.18;0.80;;;10.50;99.90;;;;;;5031120;28;20056;-72
2022/11/02 03:45:18;;;;;;;11.05;1.17;;;10.50;99.90;;;;;;5030135;28;20093;-72
2022/11/02 03:47:49;;;;;;;7.45;1.23;;;10.40;99.90;;;;;;5048147;28;20460;-72
2022/11/02 03:50:20;;;;;;;8.95;1.05;;;10.40;99.90;;;;;;5030206;28;20052;-72
2022/11/02 03:52:49;;;;;;;11.88;1.77;;;10.40;99.90;;;;;;5027258;28;20566;-72
2022/11/02 03:55:24;;;;;;;7.57;1.17;;;10.40;99.90;;;;;;5030635;28;20048;-72
2022/11/02 03:57:51;;;;;;;;;;;10.50;99.90;;;;;;5031282;28;20820;-72
2022/11/02 04:00:24;;;;;;;9.90;0.80;;;10.50;99.90;;;;;;5013487;28;19927;-72
2022/11/02 04:02:58;;;;;;;10.90;0.95;;;10.50;99.90;;;;;;5014145;28;20076;-72
2022/11/02 04:05:35;;;;;;;10.40;1.08;;;10.50;99.90;;;;;;5042636;28;20048;-72
2022/11/02 04:16:14;;;;;;;9.30;1.70;;;10.60;99.90;;;;;;5052713;28;20053;-72
2022/11/02 04:21:25;;;;;;;6.70;1.02;;;10.50;99.90;;;;;;5032275;28;20303;-72
2022/11/02 04:26:36;;;;;;;7.83;1.03;;;10.50;99.90;;;;;;5031803;28;20040;-72
2022/11/02 04:29:02;;;;;;;9.90;1.50;;;10.50;99.90;;;;;;5024897;28;20990;-73
2022/11/02 04:31:28;;;;;;;10.00;1.00;;;10.50;99.90;;;;;;5024232;28;20290;-72
2022/11/02 04:33:54;;;;;;;9.75;1.42;;;10.50;99.90;;;;;;5055532;28;20294;-72
2022/11/02 04:36:20;;;;;;;6.23;1.20;;;10.50;99.90;;;;;;5030308;28;20067;-72
2022/11/02 04:38:46;;;;;;;7.40;1.07;;;10.50;99.90;;;;;;5030229;28;20123;-72
2022/11/02 04:44:05;;;;;;;9.18;1.13;;;10.40;99.90;;;;;;5041187;28;20048;-72
2022/11/02 04:46:33;;;;;;;10.18;1.02;;;10.40;99.90;;;;;;5029778;28;20075;-73
2022/11/02 04:48:58;;;;;;;5.47;0.90;;;10.40;99.90;;;;;;5046801;28;20055;-72
2022/11/02 04:51:26;;;;;;;6.90;1.23;;;10.50;99.90;;;;;;5029220;28;20287;-72
2022/11/02 04:53:53;;;;;;;6.80;1.33;;;10.50;99.90;;;;;;5026669;28;20041;-72
2022/11/02 04:56:20;;;;;;;9.27;1.35;;;10.50;99.90;;;;;;5029308;28;20404;-72
2022/11/02 04:58:55;;;;;;;6.28;1.40;;;10.50;99.90;;;;;;5048030;28;20098;-72
2022/11/02 05:01:22;;;;;;;;;;;10.40;99.90;;;;;;5030563;28;20499;-72
2022/11/02 05:03:49;;;;;;;8.43;0.95;;;10.40;99.90;;;;;;5050574;28;19929;-72
2022/11/02 05:06:16;;;;;;;4.82;1.00;;;10.30;99.90;;;;;;5025528;28;20141;-72
2022/11/02 05:08:42;;;;;;;10.35;1.10;;;10.30;99.90;;;;;;5031463;28;20044;-72
2022/11/02 05:11:09;;;;;;;6.23;0.90;;;10.20;99.90;;;;;;5010756;28;20638;-72
2022/11/02 05:13:36;;;;;;;7.63;1.17;;;10.20;99.90;;;;;;5040132;28;20048;-72
2022/11/02 05:16:02;;;;;;;8.20;1.27;;;10.20;99.90;;;;;;5029211;28;20041;-72
2022/11/02 05:18:28;;;;;;;8.17;1.17;;;10.10;99.90;;;;;;5048875;28;20290;-72
2022/11/02 05:20:56;;;;;;;11.37;1.53;;;10.10;99.90;;;;;;5043712;28;20060;-72
2022/11/02 05:23:23;;;;;;;9.38;1.65;;;10.20;99.90;;;;;;5049792;28;20606;-72
2022/11/02 05:26:03;;;;;;;8.30;2.10;;;10.20;99.90;;;;;;5048927;28;20068;-72
2022/11/02 05:28:29;;;;;;;14.30;1.90;;;10.20;99.90;;;;;;5045429;28;20244;-72
2022/11/02 05:30:59;;;;;;;13.03;1.83;;;10.20;99.90;;;;;;5032778;28;20044;-72
2022/11/02 05:33:26;;;;;;;8.30;0.90;;;10.20;99.90;;;;;;5015072;28;20291;-72
2022/11/02 05:35:54;;;;;;;10.00;1.10;;;10.20;99.90;;;;;;5046374;28;20962;-72
2022/11/02 05:38:20;;;;;;;14.10;1.83;;;10.20;99.90;;;;;;5031450;28;20365;-72
2022/11/02 05:40:57;;;;;;;9.80;1.70;;;10.20;99.90;;;;;;5055400;28;20048;-72
2022/11/02 05:43:23;;;;;;;11.73;1.88;;;10.20;99.90;;;;;;5043041;28;20080;-72
2022/11/02 05:45:59;;;;;;;7.05;1.30;;;10.30;99.90;;;;;;5028298;28;20028;-72
2022/11/02 05:48:27;;;;;;;15.40;1.90;;;10.30;99.90;;;;;;5048184;28;20040;-72
2022/11/02 05:50:58;;;;;;;10.88;1.52;;;10.30;99.90;;;;;;5036105;28;20280;-72
2022/11/02 05:53:25;;;;;;;8.52;1.20;;;10.40;99.90;;;;;;5039124;28;20074;-72
2022/11/02 05:55:51;;;;;;;10.30;2.08;;;10.40;99.90;;;;;;5049964;28;20249;-72
2022/11/02 05:58:17;;;;;;;12.55;1.65;;;10.50;99.90;;;;;;5046936;28;20039;-72
2022/11/02 06:00:43;;;;;;;13.70;1.67;;;10.50;99.90;;;;;;5032197;28;20048;-72
2022/11/02 06:03:09;;;;;;;9.47;1.33;;;10.50;99.90;;;;;;5022186;28;20845;-72
2022/11/02 06:05:35;;;;;;;10.60;1.67;;;10.50;99.90;;;;;;5048518;28;20044;-72
2022/11/02 06:08:01;;;;;;;8.80;1.57;;;10.60;99.90;;;;;;5030540;28;20372;-72
2022/11/02 06:10:28;;;;;;;8.68;1.00;;;10.50;99.90;;;;;;5027451;28;20124;-72
2022/11/02 06:12:56;;;;;;;9.65;1.15;;;10.50;99.90;;;;;;5059293;28;20046;-72
2022/11/02 06:15:22;;;;;;;7.60;0.90;;;10.50;99.90;;;;;;5035713;28;20052;-72
2022/11/02 06:17:48;;;;;;;10.33;1.30;;;10.50;99.90;;;;;;5047024;28;20283;-72
2022/11/02 06:20:14;;;;;;;9.50;0.80;;;10.50;99.90;;;;;;5030673;28;20697;-72
2022/11/02 06:22:40;;;;;;;12.73;1.20;;;10.50;99.90;;;;;;5042818;28;20511;-72
2022/11/02 06:25:07;;;;;;;6.88;1.50;;;10.40;99.90;;;;;;5028729;28;20053;-72
2022/11/02 06:27:33;;;;;;;10.82;0.95;;;10.40;99.90;;;;;;5020037;28;20044;-72
2022/11/02 06:29:59;;;;;;;7.07;1.33;;;10.40;99.90;;;;;;5059174;28;20464;-72
2022/11/02 06:32:25;;;;;;;9.57;1.30;;;10.40;99.90;;;;;;5020438;28;20079;-72
2022/11/02 06:34:50;;;;;;;11.73;1.27;;;10.40;99.90;;;;;;5037219;28;20036;-72
2022/11/02 06:37:16;;;;;;;10.87;1.67;;;10.50;99.90;;;;;;5035842;28;20032;-72
2022/11/02 06:39:42;;;;;;;8.07;1.50;;;10.50;99.90;;;;;;5032555;28;20048;-72
2022/11/02 06:42:08;;;;;;;8.40;1.03;;;10.60;99.90;;;;;;5039878;28;20454;-72
2022/11/02 06:44:33;;;;;;;6.53;1.77;;;10.70;99.90;;;;;;5031126;28;20059;-72
2022/11/02 06:46:59;;;;;;;6.60;1.00;;;10.60;99.90;;;;;;5016303;28;20283;-72
2022/11/02 06:49:25;;;;;;;5.13;0.67;;;10.60;99.90;;;;;;5032946;28;20045;-72
2022/11/02 06:51:51;;;;;;;3.80;1.20;;;10.50;99.90;;;;;;5009542;28;20519;-72
2022/11/02 06:54:17;;;;;;;6.40;0.73;;;10.40;99.90;;;;;;5013813;28;20041;-73
2022/11/02 06:56:43;;;;;;;6.13;0.57;;;10.30;99.90;;;;;;5032311;28;20389;-72
2022/11/02 06:59:08;;;;;;;6.60;1.20;;;10.30;99.90;;;;;;5044881;28;20140;-72
2022/11/02 07:01:34;;;;;;;4.17;0.73;;;10.30;99.90;;;;;;5047932;28;20037;-73
2022/11/02 07:04:00;;;;;;;6.27;1.00;;;10.30;99.90;;;;;;5033398;28;20040;-72
2022/11/02 07:06:26;;;;;;;7.68;0.90;;;10.40;99.90;;;;;;5031746;28;20044;-72
2022/11/02 07:08:53;;;;;;;9.17;1.00;;;10.40;99.90;;;;;;5032273;28;20040;-71
2022/11/02 07:11:18;;;;;;;5.40;0.52;;;10.30;99.90;;;;;;5021750;28;20067;-71
2022/11/02 07:13:44;;;;;;;6.10;0.63;;;10.30;99.90;;;;;;5022075;28;20048;-72
2022/11/02 07:16:10;;;;;;;7.50;0.80;;;10.30;99.90;;;;;;5008960;28;20044;-71
2022/11/02 07:18:36;;;;;;;6.03;0.80;;;10.20;99.90;;;;;;5027867;28;20530;-72
2022/11/02 07:21:02;;;;;;;4.77;0.70;;;10.20;99.90;;;;;;5047424;28;20051;-72
2022/11/02 07:23:28;;;;;;;6.53;1.27;;;10.10;99.90;;;;;;5047528;28;20083;-72
2022/11/02 07:25:54;;;;;;;6.53;0.60;;;10.10;99.90;;;;;;5046865;28;20036;-72
2022/11/02 07:28:20;;;;;;;8.40;1.10;;;10.00;99.90;;;;;;5047562;28;20036;-71
2022/11/02 07:30:46;;;;;;;8.23;1.40;;;10.00;99.90;;;;;;5047290;28;20040;-71
2022/11/02 07:33:11;;;;;;;8.63;1.40;;;10.10;99.90;;;;;;5047769;28;20094;-71
2022/11/02 07:35:37;;;;;;;6.33;1.13;;;10.00;99.90;;;;;;5026615;28;20648;-71
2022/11/02 07:38:05;;;;;;;11.73;1.67;;;10.00;99.90;;;;;;5045945;28;20041;-71
2022/11/02 07:40:33;;;;;;;5.82;0.90;;;10.00;99.90;;;;;;5026387;28;20539;-71
2022/11/02 07:43:00;;;;;;;9.40;1.13;;;10.10;99.90;;;;;;5037987;28;20044;-71
2022/11/02 07:45:27;;;;;;;13.40;1.67;;;10.20;99.90;;;;;;5045136;28;20043;-72
2022/11/02 07:47:53;;;;;;;11.88;1.02;;;10.30;99.90;;;;;;5046390;28;20483;-73
2022/11/02 07:50:21;;;;;;;9.03;1.17;;;10.30;99.90;;;;;;5029232;28;20043;-73
2022/11/02 07:52:49;;;;;;;6.57;1.00;;;10.40;99.90;;;;;;5046890;28;20151;-73
2022/11/02 07:55:17;;;;;;;11.25;1.42;;;10.50;99.90;;;;;;5047816;28;20101;-73
2022/11/02 07:57:55;;;;;;;10.40;1.60;;;10.60;99.90;;;;;;5046365;28;20438;-73
2022/11/02 08:00:21;;;;;;;9.02;1.17;;;10.60;99.90;;;;;;5030383;28;20252;-73
2022/11/02 08:02:47;;;;;;;7.60;1.35;;;10.70;99.90;;;;;;5051799;28;20072;-73
2022/11/02 08:05:13;;;;;;;12.37;1.50;;;10.70;99.90;;;;;;5014351;28;20429;-73
2022/11/02 08:07:39;;;;;;;11.43;1.33;;;10.70;99.90;;;;;;5030385;28;20283;-73
2022/11/02 08:10:05;;;;;;;9.63;1.43;;;10.70;99.90;;;;;;5046433;28;20115;-73
2022/11/02 08:12:31;;;;;;;9.60;1.17;;;10.80;99.90;;;;;;5028404;28;20040;-73
2022/11/02 08:14:57;;;;;;;10.43;1.40;;;10.80;99.90;;;;;;5014269;28;20291;-73
2022/11/02 08:17:23;;;;;;;9.47;0.90;;;10.80;99.90;;;;;;5012985;28;20039;-73
2022/11/02 08:19:49;;;;;;;7.03;0.87;;;10.80;99.90;;;;;;5045188;28;20131;-73
2022/11/02 08:22:14;;;;;;;11.20;0.90;;;10.80;99.90;;;;;;5011919;28;20431;-73
2022/11/02 08:24:40;;;;;;;8.27;0.90;;;10.70;99.90;;;;;;5028057;28;20048;-73
2022/11/02 08:27:06;;;;;;;8.60;0.93;;;10.70;99.90;;;;;;5013162;28;20486;-73
2022/11/02 08:29:32;;;;;;;9.83;1.63;;;10.70;99.90;;;;;;5013316;28;20076;-73
2022/11/02 08:31:57;;;;;;;7.17;0.87;;;10.90;99.90;;;;;;5029512;28;20052;-73
2022/11/02 08:34:23;;;;;;;8.43;1.17;;;11.00;99.90;;;;;;5013694;28;20102;-73
2022/11/02 08:36:49;;;;;;;8.73;0.97;;;11.10;99.90;;;;;;5029727;28;20575;-72
2022/11/02 08:39:14;;;;;;;9.57;1.10;;;11.10;99.90;;;;;;5030160;28;20044;-73
2022/11/02 08:41:40;;;;;;;12.43;1.50;;;11.10;99.90;;;;;;5029325;28;20358;-72
2022/11/02 08:44:06;;;;;;;10.63;1.40;;;11.10;99.90;;;;;;5024913;28;20040;-74
2022/11/02 08:46:31;;;;;;;8.20;0.93;;;11.20;99.90;;;;;;5027307;28;20040;-73
2022/11/02 08:48:57;;;;;;;10.40;1.47;;;11.20;99.90;;;;;;5012151;28;20062;-73
2022/11/02 08:51:23;;;;;;;5.73;1.20;;;11.30;99.90;;;;;;5014058;28;20040;-74
2022/11/02 08:53:49;;;;;;;7.90;1.23;;;11.30;99.90;;;;;;5047784;28;20490;-73
2022/11/02 08:56:14;;;;;;;14.40;1.33;;;11.30;99.90;;;;;;5047358;28;20074;-72
2022/11/02 08:58:40;;;;;;;7.80;1.20;;;11.40;99.90;;;;;;5031024;28;20053;-72
2022/11/02 09:01:06;;;;;;;8.70;1.13;;;11.40;99.90;;;;;;5014261;28;20123;-72
2022/11/02 09:03:31;;;;;;;6.53;1.20;;;11.30;99.00;;;;;;5024211;28;20500;-73
2022/11/02 09:05:59;;;;;;;14.17;1.30;;;11.30;98.90;;;;;;5050355;28;20037;-72
2022/11/02 09:08:26;;;;;;;8.07;1.67;;;11.30;99.20;;;;;;5031676;28;20379;-72
2022/11/02 09:10:56;;;;;;;11.10;1.50;;;11.30;99.20;;;;;;5049780;28;20326;-73
2022/11/02 09:13:24;;;;;;;9.03;1.23;;;11.30;98.60;;;;;;5031913;28;20382;-72
2022/11/02 09:15:55;;;;;;;12.53;1.10;;;11.30;97.80;;;;;;5030682;28;20286;-72
2022/11/02 09:18:22;;;;;;;14.57;1.43;;;11.40;99.00;;;;;;5050061;28;20323;-73
2022/11/02 09:20:48;;;;;;;8.90;1.60;;;11.50;98.60;;;;;;5046305;28;20282;-73
2022/11/02 09:23:19;;;;;;;10.07;1.33;;;11.70;98.70;;;;;;5050679;28;20299;-73
2022/11/02 09:25:45;;;;;;;8.07;1.30;;;11.90;98.50;;;;;;5050650;28;20283;-73
2022/11/02 09:28:13;;;;;;;11.50;1.40;;;12.00;97.40;;;;;;5050773;28;20289;-73
2022/11/02 09:30:40;;;;;;;5.27;0.60;;;12.20;95.90;;;;;;5032879;28;20274;-72
2022/11/02 09:33:06;;;;;;;10.80;1.07;;;12.30;96.30;;;;;;5050570;28;20433;-73
2022/11/02 09:35:38;;;;;;;8.90;1.47;;;12.40;96.60;;;;;;5033637;28;20654;-73
2022/11/02 09:38:04;;;;;;;8.87;1.07;;;12.50;94.80;;;;;;5050144;28;20312;-73
2022/11/02 09:40:36;;;;;;;8.10;1.30;;;12.50;95.00;;;;;;5050127;28;20790;-73
2022/11/02 09:43:27;;;;;;;9.53;1.33;;;12.50;92.60;;;;;;5033592;28;20526;-73
2022/11/02 09:46:14;;;;;;;10.50;1.70;;;12.50;94.50;;;;;;5033927;28;20414;-73
2022/11/02 09:48:56;;;;;;;8.03;1.33;;;12.50;92.50;;;;;;5033859;28;21077;-73
2022/11/02 09:51:53;;;;;;;8.33;1.27;;;12.50;92.50;;;;;;5049855;28;20286;-73
2022/11/02 09:54:31;;;;;;;8.17;1.00;;;12.60;91.00;;;;;;5019785;28;20293;-71
2022/11/02 09:57:03;;;;;;;7.73;0.97;;;12.70;89.40;;;;;;5038788;28;20290;-72
2022/11/02 09:59:29;;;;;;;9.40;1.17;;;12.90;89.70;;;;;;5031945;28;20283;-72
2022/11/02 10:02:13;;;;;;;10.37;1.23;;;13.10;87.40;;;;;;5033862;28;20313;-72
2022/11/02 10:04:55;;;;;;;13.77;1.50;;;13.30;89.00;;;;;;5032332;28;20074;-73
2022/11/02 10:07:28;;;;;;;6.97;0.97;;;13.40;86.20;;;;;;5031009;28;20291;-72
2022/11/02 10:09:59;;;;;;;7.37;0.90;;;13.30;83.10;;;;;;5036073;28;20274;-72
2022/11/02 10:12:44;;;;;;;7.10;1.10;;;13.40;84.20;;;;;;5032942;28;20302;-72
2022/11/02 10:15:13;;;;;;;7.47;1.02;;;13.40;83.90;;;;;;5048014;28;20721;-72
2022/11/02 10:17:41;;;;;;;8.40;0.80;;;13.50;82.90;;;;;;5049548;28;20170;-72
2022/11/02 10:20:37;;;;;;;10.93;1.03;;;13.40;80.00;;;;;;5046470;28;20287;-72
2022/11/02 10:23:07;;;;;;;11.60;1.20;;;13.30;82.60;;;;;;5035976;28;20298;-72
2022/11/02 10:25:35;;;;;;;9.67;1.57;;;13.20;82.10;;;;;;5048341;28;20036;-72
2022/11/02 10:28:23;;;;;;;11.37;2.10;;;13.20;83.00;;;;;;5047621;28;20611;-72
2022/11/02 10:30:51;;;;;;;7.93;0.63;;;13.10;81.70;;;;;;5046606;28;20770;-72
2022/11/02 10:33:19;;;;;;;7.03;0.87;;;13.10;83.20;;;;;;5031958;28;20369;-72
2022/11/02 10:36:01;;;;;;;8.30;1.10;;;13.10;84.10;;;;;;5021811;28;20295;-72
2022/11/02 10:38:51;;;;;;;9.30;1.13;;;13.10;83.90;;;;;;5032109;28;20762;-72
2022/11/02 10:41:23;;;;;;;5.03;0.83;;;13.10;83.10;;;;;;5048776;28;20762;-72
2022/11/02 10:44:00;;;;;;;8.40;1.23;;;13.20;82.60;;;;;;5029753;28;20307;-72
2022/11/02 10:46:26;;;;;;;7.57;0.87;;;13.30;83.20;;;;;;5031833;28;20282;-72
2022/11/02 10:49:18;;;;;;;9.30;1.43;;;13.30;81.00;;;;;;5047978;28;20279;-72
2022/11/02 10:51:43;;;;;;;9.00;1.10;;;13.40;81.30;;;;;;5049197;28;20051;-72
2022/11/02 10:54:14;;;;;;;7.60;1.50;;;13.50;80.50;;;;;;5032032;28;20294;-72
2022/11/02 10:56:42;;;;;;;13.13;1.60;;;13.50;78.20;;;;;;5048628;28;20050;-72
2022/11/02 10:59:17;;;;;;;10.33;1.30;;;13.40;78.90;;;;;;5048109;28;20763;-72
2022/11/02 11:01:54;;;;;;;5.18;1.23;;;13.20;78.80;;;;;;5049420;28;20831;-72
2022/11/02 11:04:25;;;;;;;7.13;0.80;;;13.10;79.30;;;;;;5052254;28;20044;-72
2022/11/02 11:06:53;;;;;;;8.03;1.10;;;13.00;80.20;;;;;;5047639;28;20275;-72
2022/11/02 11:09:59;;;;;;;16.90;1.60;;;13.10;81.70;;;;;;5030898;28;20682;-74
2022/11/02 11:12:30;;;;;;;11.20;1.30;;;13.20;77.90;;;;;;4946192;28;20682;-72
2022/11/02 11:15:00;;;;;;;6.97;0.57;;;13.20;79.00;;;;;;4948228;28;20054;-72
2022/11/02 11:17:38;;;;;;;9.10;0.97;;;13.30;76.50;;;;;;5002524;28;20290;-74
2022/11/02 11:20:23;;;;;;;6.73;0.70;;;13.20;75.40;;;;;;5048429;28;21131;-73
2022/11/02 11:23:17;;;;;;;6.57;1.10;;;13.20;75.70;;;;;;5031601;28;20311;-72
2022/11/02 11:25:55;;;;;;;11.83;0.93;;;13.20;77.40;;;;;;5046731;28;20041;-72
2022/11/02 11:28:41;;;;;;;5.97;1.27;;;13.20;77.10;;;;;;5049445;28;20271;-73
2022/11/02 11:31:13;;;;;;;5.10;0.70;;;13.20;77.60;;;;;;5013396;28;20283;-72
2022/11/02 11:33:52;;;;;;;13.93;1.50;;;13.20;78.40;;;;;;5045814;28;20283;-74
2022/11/02 11:36:31;;;;;;;6.97;1.03;;;13.20;79.50;;;;;;5049434;28;21053;-72
2022/11/02 11:39:04;;;;;;;9.20;1.10;;;13.20;78.30;;;;;;5065887;28;20765;-74
2022/11/02 11:41:31;;;;;;;7.07;1.17;;;13.20;79.40;;;;;;5032019;28;20286;-72
2022/11/02 11:43:59;;;;;;;7.23;0.77;;;13.20;78.60;;;;;;5032187;28;20307;-72
2022/11/02 11:46:57;;;;;;;7.73;1.57;;;13.10;77.90;;;;;;5031935;28;20286;-73
2022/11/02 11:49:26;;;;;;;8.77;1.00;;;13.00;77.60;;;;;;5047583;28;20495;-72
2022/11/02 11:51:54;;;;;;;7.53;0.83;;;13.00;77.60;;;;;;5031960;28;20271;-72
2022/11/02 11:54:26;;;;;;;9.63;1.00;;;12.90;78.10;;;;;;5047872;28;20336;-73
2022/11/02 11:56:55;;;;;;;8.83;0.83;;;12.80;78.70;;;;;;5036497;28;20283;-73
2022/11/02 11:59:42;;;;;;;8.50;0.93;;;12.90;81.00;;;;;;5046194;28;20283;-72
2022/11/02 12:02:24;;;;;;;8.87;0.60;;;12.90;79.90;;;;;;5034681;28;20316;-73
2022/11/02 12:04:50;;;;;;;14.43;0.90;;;13.00;79.40;;;;;;5030071;28;20299;-73
2022/11/02 12:07:39;;;;;;;13.17;1.30;;;13.00;79.30;;;;;;5048417;28;20389;-72
2022/11/02 12:10:36;;;;;;;7.50;1.30;;;13.00;80.40;;;;;;4993639;28;20274;-73
2022/11/02 12:13:35;;;;;;;8.57;1.13;;;13.10;78.30;;;;;;5030132;28;20287;-74
2022/11/02 12:16:06;;;;;;;5.73;0.80;;;13.00;79.70;;;;;;5030159;28;20283;-73
2022/11/02 12:18:59;;;;;;;8.23;1.17;;;13.20;80.00;;;;;;5030781;28;20298;-73
2022/11/02 12:21:37;;;;;;;7.80;1.13;;;13.40;79.60;;;;;;5021719;28;20296;-73
2022/11/02 12:24:06;;;;;;;8.13;0.80;;;13.60;78.10;;;;;;5047574;28;20306;-72
2022/11/02 12:27:09;;;;;;;12.20;2.07;;;13.70;78.20;;;;;;5019489;28;20341;-72
2022/11/02 12:30:14;;;;;;;7.80;1.00;;;13.70;78.50;;;;;;5020709;28;20322;-72
2022/11/02 12:33:11;;;;;;;6.87;1.17;;;13.80;80.10;;;;;;5020318;28;20337;-72
2022/11/02 12:35:44;;;;;;;7.63;1.13;;;13.80;78.90;;;;;;5044605;28;20391;-73
2022/11/02 12:38:28;;;;;;;6.80;0.70;;;13.80;78.80;;;;;;5029826;28;20293;-72
2022/11/02 12:40:58;;;;;;;7.83;1.37;;;13.80;77.90;;;;;;5029115;28;20279;-73
2022/11/02 12:43:40;;;;;;;9.37;1.60;;;13.70;76.90;;;;;;5043622;28;20300;-72
2022/11/02 12:46:25;;;;;;;9.83;1.23;;;13.70;77.90;;;;;;5047740;28;20740;-72
2022/11/02 12:49:10;;;;;;;11.48;0.88;;;13.70;78.90;;;;;;5052318;28;20365;-73
2022/11/02 12:51:52;;;;;;;11.93;1.05;;;13.70;80.00;;;;;;5046287;28;20043;-73
2022/11/02 12:54:27;;;;;;;11.40;1.00;;;13.70;78.50;;;;;;5046805;28;20075;-73
2022/11/02 12:56:54;;;;;;;14.10;1.42;;;13.70;78.00;;;;;;5048097;28;20286;-73
2022/11/02 12:59:27;;;;;;;8.30;1.00;;;13.70;79.40;;;;;;5030315;28;20055;-72
2022/11/02 13:02:19;;;;;;;11.30;1.23;;;13.70;79.30;;;;;;5030119;28;20279;-72
2022/11/02 13:04:48;;;;;;;9.83;1.67;;;13.70;79.10;;;;;;5046778;28;20853;-73
2022/11/02 13:07:19;;;;;;;13.57;1.53;;;13.70;78.40;;;;;;5031096;28;20293;-73
2022/11/02 13:09:59;;;;;;;12.67;1.53;;;13.60;79.40;;;;;;5030400;28;20278;-74
2022/11/02 13:12:26;;;;;;;10.10;1.20;;;13.60;79.40;;;;;;5029852;28;20294;-72
2022/11/02 13:14:55;;;;;;;10.10;1.20;;;13.60;79.10;;;;;;5031134;28;20441;-72
2022/11/02 13:17:37;;;;;;;7.40;1.20;;;13.70;78.10;;;;;;5030763;28;20347;-72
2022/11/02 13:20:11;;;;;;;7.20;0.80;;;13.60;78.70;;;;;;5028844;28;20314;-72
2022/11/02 13:22:40;;;;;;;8.40;1.20;;;13.60;77.90;;;;;;5030780;28;20299;-73
2022/11/02 13:25:28;;;;;;;8.60;1.07;;;13.60;77.60;;;;;;5047128;28;20226;-73